Terminal Aerodrome Forecast
Issued by NWS Newport/Morehead City, NC

Home | Current Version | Previous Version | Text Only | Print | Product List | Glossary On
Versions: 1 2 3 4 5 6 7 8 9 10 11 12 13
000
FTUS42 KMHX 272036 AAA
TAFEWN
TAF AMD
KEWN 272036Z 2721/2818 18010G15KT P6SM FEW040
     FM280000 17005KT P6SM SKC
     FM280800 VRB04KT P6SM SKC=

USA.gov is the U.S. government's official web portal to all federal, state and local government web resources and services.